createdAt,value
2022-12-23T00:01:13.233Z,43.62
2022-12-23T00:03:39.872Z,43.55
2022-12-23T00:06:14.985Z,43.64
2022-12-23T00:08:42.301Z,43.59
2022-12-23T00:11:15.179Z,43.53
2022-12-23T00:14:00.739Z,43.23
2022-12-23T00:16:27.406Z,43.44
2022-12-23T00:18:54.388Z,43.45
2022-12-23T00:21:21.490Z,43.44
2022-12-23T00:23:49.973Z,43.63
2022-12-23T00:26:24.920Z,43.38
2022-12-23T00:28:51.980Z,43.57
2022-12-23T00:31:21.191Z,43.49
2022-12-23T00:33:49.352Z,43.52
2022-12-23T00:36:23.846Z,43.24
2022-12-23T00:39:09.241Z,43.40
2022-12-23T00:41:54.477Z,43.42
2022-12-23T00:44:21.178Z,43.44
2022-12-23T00:46:47.816Z,43.42
2022-12-23T00:49:35.209Z,43.41
2022-12-23T00:52:01.775Z,43.34
2022-12-23T00:54:28.911Z,43.52
2022-12-23T00:56:55.461Z,43.33
2022-12-23T00:59:22.006Z,43.27
2022-12-23T01:02:07.100Z,43.30
2022-12-23T01:04:52.421Z,43.28
2022-12-23T01:07:19.221Z,43.43
2022-12-23T01:09:45.806Z,43.35
2022-12-23T01:12:13.421Z,43.21
2022-12-23T01:14:40.188Z,43.46
2022-12-23T01:17:08.118Z,43.34
2022-12-23T01:19:35.003Z,43.51
2022-12-23T01:22:01.526Z,43.19
2022-12-23T01:24:29.727Z,43.58
2022-12-23T01:26:56.425Z,43.46
2022-12-23T01:29:23.049Z,43.35
2022-12-23T01:31:49.659Z,43.68
2022-12-23T01:34:16.336Z,43.33
2022-12-23T01:36:43.882Z,43.46
2022-12-23T01:39:10.431Z,43.54
2022-12-23T01:41:55.230Z,43.40
2022-12-23T01:44:56.881Z,43.52
2022-12-23T01:47:29.373Z,43.39
2022-12-23T01:50:08.452Z,43.65
2022-12-23T01:52:39.982Z,43.57
2022-12-23T01:55:06.982Z,43.57
2022-12-23T01:57:34.442Z,43.40
2022-12-23T02:00:19.487Z,43.65
2022-12-23T02:03:05.093Z,43.45
2022-12-23T02:05:32.005Z,43.50
2022-12-23T02:08:16.852Z,43.63
2022-12-23T02:11:19.280Z,43.66
2022-12-23T02:14:36.867Z,43.63
2022-12-23T02:17:41.684Z,43.57
2022-12-23T02:20:20.119Z,43.39
2022-12-23T02:22:52.638Z,43.49
2022-12-23T02:25:26.812Z,43.49
2022-12-23T02:28:21.235Z,43.40
2022-12-23T02:30:52.462Z,43.71
2022-12-23T02:33:47.141Z,43.60
2022-12-23T02:36:32.174Z,43.55
2022-12-23T02:39:10.729Z,43.66
2022-12-23T02:41:51.427Z,43.55
2022-12-23T02:44:38.140Z,43.68
2022-12-23T02:47:17.838Z,43.41
2022-12-23T02:49:51.417Z,43.47
2022-12-23T02:52:21.450Z,43.60
2022-12-23T02:54:54.310Z,43.75
2022-12-23T02:57:24.623Z,43.84
2022-12-23T02:59:52.303Z,43.82
2022-12-23T03:02:19.817Z,43.84
2022-12-23T03:04:46.481Z,43.70
2022-12-23T03:07:31.861Z,43.60
2022-12-23T03:10:17.130Z,43.52
2022-12-23T03:13:01.600Z,43.62
2022-12-23T03:15:28.100Z,43.54
2022-12-23T03:18:07.782Z,43.56
2022-12-23T03:20:54.895Z,43.68
2022-12-23T03:23:29.548Z,43.72
2022-12-23T03:25:56.013Z,43.68
2022-12-23T03:28:44.006Z,43.68
2022-12-23T03:31:17.678Z,43.72
2022-12-23T03:33:48.259Z,43.65
2022-12-23T03:36:25.457Z,43.61
2022-12-23T03:38:53.806Z,43.64
2022-12-23T03:41:25.882Z,43.54
2022-12-23T03:44:10.916Z,43.56
2022-12-23T03:46:40.633Z,43.69
2022-12-23T03:49:10.120Z,43.60
2022-12-23T03:51:44.810Z,43.64
2022-12-23T03:54:16.570Z,43.57
2022-12-23T03:56:49.991Z,43.53
2022-12-23T03:59:22.040Z,43.59
2022-12-23T04:02:17.422Z,43.61
2022-12-23T04:04:46.930Z,43.63
2022-12-23T04:07:21.575Z,43.61
2022-12-23T04:09:48.477Z,43.61
2022-12-23T04:12:15.349Z,43.79
2022-12-23T04:14:48.673Z,43.53
2022-12-23T04:17:16.099Z,43.87
2022-12-23T04:19:45.418Z,43.74
2022-12-23T04:22:13.712Z,43.51
2022-12-23T04:24:40.339Z,43.75
2022-12-23T04:27:07.976Z,43.65
2022-12-23T04:29:34.516Z,43.73
2022-12-23T04:32:01.110Z,43.76
2022-12-23T04:34:27.666Z,43.73
2022-12-23T04:36:54.298Z,43.78
2022-12-23T04:39:20.872Z,43.66
2022-12-23T04:41:47.762Z,43.72
2022-12-23T04:44:14.328Z,43.62
2022-12-23T04:46:40.971Z,43.72
2022-12-23T04:49:07.779Z,43.80
2022-12-23T04:51:34.391Z,43.68
2022-12-23T04:54:00.924Z,43.66
2022-12-23T04:56:27.451Z,43.92
2022-12-23T04:58:54.051Z,43.75
2022-12-23T05:01:20.711Z,43.69
2022-12-23T05:03:47.264Z,43.66
2022-12-23T05:06:13.820Z,43.86
2022-12-23T05:08:40.349Z,43.81
2022-12-23T05:11:07.538Z,43.78
2022-12-23T05:13:34.143Z,43.91
2022-12-23T05:16:00.750Z,43.93
2022-12-23T05:18:27.386Z,43.56
2022-12-23T05:20:54.527Z,43.95
2022-12-23T05:23:21.075Z,43.89
2022-12-23T05:25:55.089Z,43.71
2022-12-23T05:28:22.308Z,43.63
2022-12-23T05:30:48.995Z,43.74
2022-12-23T05:33:15.884Z,43.91
2022-12-23T05:35:42.479Z,43.94
2022-12-23T05:38:09.038Z,43.83
2022-12-23T05:40:35.620Z,43.82
2022-12-23T05:43:02.396Z,43.71
2022-12-23T05:45:29.183Z,43.87
2022-12-23T05:47:55.846Z,43.74
2022-12-23T05:50:22.416Z,43.86
2022-12-23T05:52:48.994Z,43.86
2022-12-23T05:55:15.593Z,43.77
2022-12-23T05:57:42.157Z,43.87
2022-12-23T06:00:09.703Z,43.65
2022-12-23T06:02:36.451Z,43.76
2022-12-23T06:05:03.190Z,43.90
2022-12-23T06:07:29.715Z,43.91
2022-12-23T06:09:56.273Z,43.75
2022-12-23T06:12:22.802Z,43.87
2022-12-23T06:14:49.454Z,43.77
2022-12-23T06:17:16.031Z,43.78
2022-12-23T06:19:42.568Z,43.95
2022-12-23T06:22:09.234Z,43.82
2022-12-23T06:24:35.770Z,43.72
2022-12-23T06:27:02.311Z,43.86
2022-12-23T06:29:29.313Z,43.80
2022-12-23T06:31:55.910Z,43.74
2022-12-23T06:34:22.466Z,43.81
2022-12-23T06:36:49.023Z,43.86
2022-12-23T06:39:15.672Z,43.93
2022-12-23T06:41:42.209Z,43.76
2022-12-23T06:44:10.058Z,43.81
2022-12-23T06:46:36.597Z,43.82
2022-12-23T06:49:09.054Z,43.98
2022-12-23T06:51:39.298Z,43.87
2022-12-23T06:54:05.821Z,43.94
2022-12-23T06:56:33.454Z,44.01
2022-12-23T06:59:00.110Z,43.81
2022-12-23T07:01:26.801Z,43.86
2022-12-23T07:03:53.427Z,43.97
2022-12-23T07:06:19.964Z,44.05
2022-12-23T07:08:46.524Z,43.88
2022-12-23T07:11:13.058Z,43.68
2022-12-23T07:13:39.586Z,43.81
2022-12-23T07:16:07.964Z,44.14
2022-12-23T07:18:35.045Z,44.52
2022-12-23T07:21:02.363Z,44.21
2022-12-23T07:23:29.289Z,44.13
2022-12-23T07:25:55.862Z,44.23
2022-12-23T07:28:25.167Z,44.14
2022-12-23T07:30:51.714Z,44.21
2022-12-23T07:33:18.261Z,44.35
2022-12-23T07:35:44.812Z,44.39
2022-12-23T07:38:11.335Z,44.34
2022-12-23T07:40:37.887Z,44.30
2022-12-23T07:43:05.619Z,44.41
2022-12-23T07:45:32.187Z,44.27
2022-12-23T07:48:00.510Z,43.96
2022-12-23T07:50:27.665Z,44.08
2022-12-23T07:52:54.658Z,44.08
2022-12-23T07:55:21.551Z,44.02
2022-12-23T07:57:51.858Z,44.10
2022-12-23T08:00:19.439Z,44.46
2022-12-23T08:02:46.681Z,44.34
2022-12-23T08:05:13.687Z,44.42
2022-12-23T08:07:40.401Z,44.16
2022-12-23T08:10:07.588Z,43.81
2022-12-23T08:12:34.372Z,43.97
2022-12-23T08:15:00.909Z,43.86
2022-12-23T08:17:28.912Z,43.57
2022-12-23T08:19:55.667Z,44.05
2022-12-23T08:22:22.445Z,44.69
2022-12-23T08:24:49.024Z,44.75
2022-12-23T08:27:16.353Z,44.90
2022-12-23T08:29:42.930Z,44.89
2022-12-23T08:32:09.478Z,44.92
2022-12-23T08:34:36.376Z,45.01
2022-12-23T08:37:02.923Z,45.02
2022-12-23T08:39:29.474Z,44.81
2022-12-23T08:41:56.169Z,44.87
2022-12-23T08:44:22.845Z,44.85
2022-12-23T08:46:52.105Z,44.83
2022-12-23T08:49:18.684Z,44.71
2022-12-23T08:51:45.489Z,44.70
2022-12-23T08:54:12.283Z,44.98
2022-12-23T08:56:42.178Z,45.65
2022-12-23T08:59:18.582Z,45.49
2022-12-23T09:01:47.346Z,45.33
2022-12-23T09:04:14.063Z,45.06
2022-12-23T09:06:42.307Z,45.04
2022-12-23T09:09:11.674Z,45.16
2022-12-23T09:11:38.297Z,45.11
2022-12-23T09:14:05.223Z,44.96
2022-12-23T09:16:32.288Z,44.76
2022-12-23T09:18:58.989Z,44.60
2022-12-23T09:21:25.595Z,44.56
2022-12-23T09:23:52.692Z,44.63
2022-12-23T09:26:21.751Z,44.52
2022-12-23T09:28:48.333Z,44.58
2022-12-23T09:31:15.129Z,44.57
2022-12-23T09:33:41.943Z,44.38
2022-12-23T09:36:08.889Z,44.34
2022-12-23T09:38:36.122Z,44.68
2022-12-23T09:41:35.483Z,44.38
2022-12-23T09:44:12.836Z,44.42
2022-12-23T09:46:47.320Z,44.47
2022-12-23T09:49:16.664Z,44.44
2022-12-23T09:51:43.766Z,44.52
2022-12-23T09:54:17.356Z,44.50
2022-12-23T09:56:54.771Z,44.52
2022-12-23T09:59:43.093Z,44.51
2022-12-23T10:02:38.723Z,44.28
2022-12-23T10:05:32.068Z,44.37
2022-12-23T10:08:14.188Z,44.26
2022-12-23T10:10:47.318Z,44.30
2022-12-23T10:13:41.375Z,44.29
2022-12-23T10:16:09.727Z,44.17
2022-12-23T10:18:39.336Z,44.05
2022-12-23T10:21:18.576Z,44.25
2022-12-23T10:23:50.494Z,44.11
2022-12-23T10:26:24.367Z,44.10
2022-12-23T10:29:08.005Z,44.02
2022-12-23T10:32:06.102Z,44.18
2022-12-23T10:34:52.766Z,43.99
2022-12-23T10:37:52.102Z,44.08
2022-12-23T10:40:56.174Z,44.09
2022-12-23T10:43:40.999Z,44.25
2022-12-23T10:46:17.598Z,43.97
2022-12-23T10:49:25.773Z,44.15
2022-12-23T10:51:58.250Z,44.13
2022-12-23T10:54:32.165Z,43.99
2022-12-23T10:56:58.843Z,44.14
2022-12-23T10:59:31.586Z,44.32
2022-12-23T11:02:13.602Z,44.33
2022-12-23T11:04:42.660Z,44.46
2022-12-23T11:07:42.969Z,44.39
2022-12-23T11:10:17.110Z,44.61
2022-12-23T11:12:49.943Z,44.63
2022-12-23T11:15:32.548Z,44.63
2022-12-23T11:18:07.606Z,44.91
2022-12-23T11:20:36.374Z,44.77
2022-12-23T11:23:04.732Z,44.74
2022-12-23T11:25:42.066Z,44.66
2022-12-23T11:28:19.675Z,44.44
2022-12-23T11:30:55.964Z,44.47
2022-12-23T11:33:30.337Z,44.69
2022-12-23T11:36:12.056Z,44.16
2022-12-23T11:38:51.386Z,44.51
2022-12-23T11:41:22.759Z,44.18
2022-12-23T11:43:58.310Z,44.30
2022-12-23T11:46:30.005Z,44.38
2022-12-23T11:49:21.235Z,44.08
2022-12-23T11:52:07.524Z,44.17
2022-12-23T11:54:34.570Z,44.19
2022-12-23T11:57:03.400Z,44.16
2022-12-23T11:59:33.588Z,44.25
2022-12-23T12:02:02.354Z,44.04
2022-12-23T12:04:33.017Z,44.15
2022-12-23T12:07:00.708Z,44.17
2022-12-23T12:09:29.727Z,44.16
2022-12-23T12:12:05.691Z,44.24
2022-12-23T12:14:41.918Z,44.10
2022-12-23T12:17:31.195Z,43.86
2022-12-23T12:20:15.219Z,44.20
2022-12-23T12:22:46.788Z,44.12
2022-12-23T12:25:27.859Z,43.97
2022-12-23T12:28:00.785Z,44.14
2022-12-23T12:30:34.696Z,44.04
2022-12-23T12:33:06.035Z,43.81
2022-12-23T12:35:44.831Z,44.12
2022-12-23T12:38:30.237Z,44.33
2022-12-23T12:41:28.218Z,44.30
2022-12-23T12:43:57.435Z,44.32
2022-12-23T12:46:52.997Z,44.19
2022-12-23T12:49:39.096Z,44.35
2022-12-23T12:52:24.085Z,44.39
2022-12-23T12:55:17.481Z,44.40
2022-12-23T12:57:44.041Z,44.28
2022-12-23T13:00:18.205Z,44.22
2022-12-23T13:02:53.501Z,44.12
2022-12-23T13:05:55.210Z,44.50
2022-12-23T13:08:43.438Z,44.47
2022-12-23T13:11:16.349Z,44.18
2022-12-23T13:14:01.038Z,44.19
2022-12-23T13:17:01.554Z,44.53
2022-12-23T13:19:30.714Z,44.52
2022-12-23T13:22:13.169Z,44.38
2022-12-23T13:24:56.965Z,44.39
2022-12-23T13:27:30.617Z,44.38
2022-12-23T13:30:03.272Z,44.48
2022-12-23T13:33:05.179Z,44.54
2022-12-23T13:35:40.737Z,44.32
2022-12-23T13:38:16.612Z,44.49
2022-12-23T13:40:57.608Z,44.39
2022-12-23T13:43:25.749Z,44.49
2022-12-23T13:45:54.258Z,44.67
2022-12-23T13:48:41.127Z,44.34
2022-12-23T13:51:31.210Z,44.38
2022-12-23T13:54:18.760Z,44.45
2022-12-23T13:57:07.991Z,44.54
2022-12-23T13:59:58.421Z,44.05
2022-12-23T14:02:36.939Z,44.58
2022-12-23T14:05:05.716Z,44.61
2022-12-23T14:07:33.542Z,44.36
2022-12-23T14:10:11.721Z,44.36
2022-12-23T14:12:42.687Z,44.54
2022-12-23T14:15:26.090Z,44.32
2022-12-23T14:18:06.834Z,44.32
2022-12-23T14:20:39.318Z,44.08
2022-12-23T14:23:28.560Z,43.98
2022-12-23T14:26:07.147Z,44.05
2022-12-23T14:29:12.752Z,43.89
2022-12-23T14:31:46.307Z,43.82
2022-12-23T14:34:18.722Z,43.98
2022-12-23T14:37:23.617Z,43.85
2022-12-23T14:39:51.711Z,43.81
2022-12-23T14:42:47.516Z,44.01
2022-12-23T14:45:51.055Z,43.80
2022-12-23T14:48:35.997Z,43.80
2022-12-23T14:51:24.869Z,43.85
2022-12-23T14:53:52.081Z,43.59
2022-12-23T14:56:18.554Z,43.88
2022-12-23T14:59:05.080Z,43.70
2022-12-23T15:01:53.343Z,43.59
2022-12-23T15:04:26.123Z,43.71
2022-12-23T15:06:56.827Z,43.71
2022-12-23T15:09:29.012Z,43.69
2022-12-23T15:11:57.773Z,43.90
2022-12-23T15:14:42.542Z,43.76
2022-12-23T15:17:26.756Z,43.82
2022-12-23T15:19:54.275Z,43.95
2022-12-23T15:22:25.607Z,43.74
2022-12-23T15:24:56.793Z,44.10
2022-12-23T15:27:28.725Z,44.00
2022-12-23T15:29:56.086Z,44.19
2022-12-23T15:32:23.836Z,43.92
2022-12-23T15:34:51.832Z,43.48
2022-12-23T15:37:29.022Z,43.91
2022-12-23T15:40:03.397Z,44.16
2022-12-23T15:42:35.371Z,43.79
2022-12-23T15:45:21.149Z,43.83
2022-12-23T15:47:47.666Z,43.99
2022-12-23T15:50:16.506Z,43.67
2022-12-23T15:52:44.998Z,43.92
2022-12-23T15:55:13.076Z,43.70
2022-12-23T15:57:50.146Z,43.68
2022-12-23T16:00:21.689Z,43.84
2022-12-23T16:03:00.495Z,43.51
2022-12-23T16:05:35.433Z,43.79
2022-12-23T16:08:29.661Z,43.68
2022-12-23T16:10:56.899Z,43.52
2022-12-23T16:13:23.895Z,43.57
2022-12-23T16:15:50.562Z,43.60
2022-12-23T16:18:19.778Z,43.76
2022-12-23T16:20:53.678Z,43.59
2022-12-23T16:23:21.036Z,43.77
2022-12-23T16:25:50.836Z,43.63
2022-12-23T16:28:29.950Z,43.69
2022-12-23T16:30:57.648Z,43.68
2022-12-23T16:33:34.208Z,43.89
2022-12-23T16:36:20.644Z,43.39
2022-12-23T16:38:48.598Z,43.72
2022-12-23T16:41:15.179Z,43.56
2022-12-23T16:43:47.703Z,43.50
2022-12-23T16:46:19.445Z,43.47
2022-12-23T16:48:51.589Z,43.38
2022-12-23T16:51:20.448Z,43.40
2022-12-23T16:53:51.319Z,43.79
2022-12-23T16:56:19.527Z,43.62
2022-12-23T16:58:46.484Z,43.43
2022-12-23T17:01:18.735Z,43.58
2022-12-23T17:03:45.292Z,43.49
2022-12-23T17:06:13.726Z,43.60
2022-12-23T17:08:40.677Z,43.43
2022-12-23T17:11:15.886Z,43.73
2022-12-23T17:13:42.474Z,43.29
2022-12-23T17:16:15.434Z,43.47
2022-12-23T17:18:42.089Z,43.46
2022-12-23T17:21:18.673Z,43.40
2022-12-23T17:23:45.237Z,43.37
2022-12-23T17:26:11.770Z,43.09
2022-12-23T17:28:38.357Z,43.43
2022-12-23T17:31:12.019Z,43.64
2022-12-23T17:33:40.967Z,43.10
2022-12-23T17:36:08.616Z,43.30
2022-12-23T17:38:35.165Z,43.38
2022-12-23T17:41:01.763Z,43.45
2022-12-23T17:43:28.387Z,43.29
2022-12-23T17:45:55.749Z,43.27
2022-12-23T17:48:28.017Z,43.20
2022-12-23T17:50:57.838Z,43.01
2022-12-23T17:53:24.389Z,43.09
2022-12-23T17:55:50.949Z,43.42
2022-12-23T17:58:17.552Z,43.41
2022-12-23T18:00:44.244Z,43.19
2022-12-23T18:03:22.211Z,43.41
2022-12-23T18:05:49.189Z,43.13
2022-12-23T18:08:16.905Z,43.25
2022-12-23T18:10:43.652Z,43.40
2022-12-23T18:13:15.095Z,43.37
2022-12-23T18:15:43.515Z,43.23
2022-12-23T18:18:26.032Z,43.44
2022-12-23T18:20:56.700Z,43.29
2022-12-23T18:23:29.286Z,43.25
2022-12-23T18:25:56.831Z,43.23
2022-12-23T18:28:24.191Z,43.34
2022-12-23T18:30:56.220Z,43.17
2022-12-23T18:33:24.199Z,43.33
2022-12-23T18:35:51.085Z,43.25
2022-12-23T18:38:18.383Z,42.80
2022-12-23T18:40:45.287Z,43.05
2022-12-23T18:43:20.054Z,43.34
2022-12-23T18:45:52.452Z,43.14
2022-12-23T18:48:19.985Z,43.30
2022-12-23T18:50:46.734Z,43.25
2022-12-23T18:53:23.889Z,43.13
2022-12-23T18:55:51.685Z,43.30
2022-12-23T18:58:18.509Z,43.12
2022-12-23T19:00:45.858Z,43.30
2022-12-23T19:03:27.932Z,43.27
2022-12-23T19:05:55.405Z,43.12
2022-12-23T19:08:26.632Z,43.09
2022-12-23T19:10:55.479Z,43.19
2022-12-23T19:13:22.053Z,43.37
2022-12-23T19:15:48.882Z,43.23
2022-12-23T19:18:17.989Z,43.19
2022-12-23T19:20:47.361Z,42.98
2022-12-23T19:23:14.120Z,42.84
2022-12-23T19:25:42.123Z,42.84
2022-12-23T19:28:08.936Z,43.00
2022-12-23T19:30:35.558Z,43.30
2022-12-23T19:33:02.296Z,43.14
2022-12-23T19:35:28.833Z,43.20
2022-12-23T19:37:55.377Z,42.92
2022-12-23T19:40:21.919Z,43.05
2022-12-23T19:42:48.489Z,43.26
2022-12-23T19:45:15.055Z,43.13
2022-12-23T19:47:41.608Z,43.12
2022-12-23T19:50:08.910Z,42.99
2022-12-23T19:52:35.577Z,43.19
2022-12-23T19:55:02.165Z,43.04
2022-12-23T19:57:28.739Z,43.19
2022-12-23T19:59:55.274Z,43.27
2022-12-23T20:02:23.425Z,43.22
2022-12-23T20:04:50.069Z,43.07
2022-12-23T20:07:16.915Z,43.11
2022-12-23T20:09:43.495Z,43.08
2022-12-23T20:12:10.056Z,42.96
2022-12-23T20:14:36.796Z,43.13
2022-12-23T20:17:03.555Z,43.27
2022-12-23T20:19:30.097Z,43.28
2022-12-23T20:21:56.658Z,43.21
2022-12-23T20:24:23.200Z,43.30
2022-12-23T20:26:49.725Z,43.06
2022-12-23T20:29:16.325Z,42.97
2022-12-23T20:31:43.454Z,42.54
2022-12-23T20:34:14.124Z,42.70
2022-12-23T20:36:40.692Z,42.96
2022-12-23T20:39:07.311Z,43.00
2022-12-23T20:41:34.299Z,43.12
2022-12-23T20:46:47.648Z,42.94
2022-12-23T20:49:14.230Z,43.10
2022-12-23T20:51:40.821Z,43.04
2022-12-23T20:54:07.376Z,42.95
2022-12-23T20:56:33.921Z,43.31
2022-12-23T20:59:03.995Z,42.65
2022-12-23T21:01:48.822Z,43.05
2022-12-23T21:04:16.696Z,42.47
2022-12-23T21:06:43.968Z,42.93
2022-12-23T21:09:12.288Z,42.55
2022-12-23T21:11:43.031Z,42.85
2022-12-23T21:14:10.590Z,42.85
2022-12-23T21:16:38.659Z,43.01
2022-12-23T21:19:14.661Z,43.03
2022-12-23T21:21:41.233Z,43.14
2022-12-23T21:24:07.864Z,43.05
2022-12-23T21:26:35.493Z,42.99
2022-12-23T21:29:03.921Z,42.89
2022-12-23T21:31:32.130Z,42.95
2022-12-23T21:33:58.982Z,42.94
2022-12-23T21:36:28.090Z,43.24
2022-12-23T21:38:54.723Z,43.02
2022-12-23T21:41:27.379Z,43.17
2022-12-23T21:43:55.529Z,43.24
2022-12-23T21:46:23.444Z,42.90
2022-12-23T21:48:50.443Z,43.66
2022-12-23T21:51:21.983Z,43.16
2022-12-23T21:53:50.554Z,43.45
2022-12-23T21:56:20.062Z,43.54
2022-12-23T21:58:46.932Z,43.58
2022-12-23T22:01:18.757Z,43.52
2022-12-23T22:03:47.284Z,43.59
2022-12-23T22:06:15.878Z,43.49
2022-12-23T22:08:42.504Z,43.35
2022-12-23T22:11:11.984Z,43.56
2022-12-23T22:13:39.079Z,43.64
2022-12-23T22:16:09.378Z,43.45
2022-12-23T22:18:37.152Z,43.73
2022-12-23T22:21:05.326Z,43.50
2022-12-23T22:23:31.884Z,43.37
2022-12-23T22:25:58.405Z,43.22
2022-12-23T22:28:24.964Z,43.54
2022-12-23T22:30:51.593Z,43.24
2022-12-23T22:33:18.149Z,43.20
2022-12-23T22:35:54.695Z,42.98
2022-12-23T22:38:21.367Z,43.12
2022-12-23T22:40:51.666Z,42.93
2022-12-23T22:43:18.751Z,43.18
2022-12-23T22:45:45.617Z,43.07
2022-12-23T22:48:12.568Z,43.02
2022-12-23T22:50:39.496Z,42.94
2022-12-23T22:53:06.058Z,43.08
2022-12-23T22:55:32.628Z,42.95
2022-12-23T22:57:59.145Z,42.83
2022-12-23T23:00:25.700Z,42.67
2022-12-23T23:02:52.244Z,42.82
2022-12-23T23:05:18.804Z,42.97
2022-12-23T23:07:45.354Z,42.88
2022-12-23T23:10:11.865Z,42.72
2022-12-23T23:12:39.605Z,42.98
2022-12-23T23:15:06.828Z,42.88
2022-12-23T23:17:33.431Z,42.71
2022-12-23T23:20:01.183Z,42.85
2022-12-23T23:22:27.713Z,42.72
2022-12-23T23:24:54.252Z,43.02
2022-12-23T23:27:20.873Z,42.73
2022-12-23T23:29:47.475Z,42.98
2022-12-23T23:32:14.048Z,42.84
2022-12-23T23:34:42.043Z,43.23
2022-12-23T23:37:08.589Z,43.13
2022-12-23T23:39:35.129Z,42.93
2022-12-23T23:42:01.706Z,43.08
2022-12-23T23:44:28.240Z,43.19
2022-12-23T23:46:54.807Z,43.13
2022-12-23T23:49:21.979Z,42.82
2022-12-23T23:51:49.294Z,43.32
2022-12-23T23:54:16.103Z,43.16
2022-12-23T23:56:42.649Z,43.06
2022-12-23T23:59:09.466Z,43.09
